Check out our new PWSWeather beta!
PWSweather.com
Personal Weather Stations
Station Observations
ANTHEMNP
Anthem North Parkside, Anthem, AZ 85086

Anthem North ParksideAnthem, AZ 85086

Lat: 33.876464, Lon: -112.13861199999997

Elevation: 1930

Station Type: Davis Vantage Vue with Pro 2 console

http://www.azjerry.com/ANPW/wxindex.php

High Low Average
Temperature 100.2°F37.9°C 79.8°F26.6°C 90.7°F32.6°C
Dew Point 69.0°F20.6°C 61.0°F16.1°C 64.9°F18.3°C
Winds 5.9 mph 9.5 kmh 0.2 mph 0.3 kmh 3.0 mph SSW4.8 kmh SSW
Wind Gusts 14.0 mph22.5 kmh 2.0 mph3.2 kmh 8.0 mph12.9 kmh
Humidity 64% 30% 44%
Pressure 29.98 in1015.2 mb 29.79 in1008.8 mb -
Precipitation 0.00 in0.0 mm - -
Hour Temp Dew Point Humidity Winds Wind Gusts Pressure Precip Precip Rate Daily Precip Total
12:00 AM 89.0°F31.7°C 62.0°F16.7°C 40% 1.8 mph SSE2.9 kmh SSE 6.0 mph9.7 kmh 29.89 in1012.2 mb 0.00 in0.0 mm 0.00 in0.0 mm 0.00 in0.0 mm
12:10 AM 89.2°F31.8°C 63.0°F17.2°C 41% 3.2 mph SSW5.1 kmh SSW 9.0 mph14.5 kmh 29.89 in1012.2 mb 0.00 in0.0 mm 0.00 in0.0 mm 0.00 in0.0 mm
12:20 AM 89.0°F31.7°C 62.0°F16.7°C 41% 2.9 mph SW4.7 kmh SW 7.0 mph11.3 kmh 29.89 in1012.2 mb 0.00 in0.0 mm 0.00 in0.0 mm 0.00 in0.0 mm
12:30 AM 88.6°F31.4°C 63.0°F17.2°C 42% 3.3 mph WSW5.3 kmh WSW 10.0 mph16.1 kmh 29.89 in1012.2 mb 0.00 in0.0 mm 0.00 in0.0 mm 0.00 in0.0 mm
12:40 AM 88.1°F31.2°C 63.0°F17.2°C 43% 2.9 mph SW4.7 kmh SW 9.0 mph14.5 kmh 29.89 in1012.2 mb 0.00 in0.0 mm 0.00 in0.0 mm 0.00 in0.0 mm
12:50 AM 87.7°F30.9°C 64.0°F17.8°C 45% 3.7 mph SW6.0 kmh SW 11.0 mph17.7 kmh 29.89 in1012.2 mb 0.00 in0.0 mm 0.00 in0.0 mm 0.00 in0.0 mm
01:00 AM 87.2°F30.7°C 64.0°F17.8°C 46% 2.9 mph SW4.7 kmh SW 7.0 mph11.3 kmh 29.89 in1012.2 mb 0.00 in0.0 mm 0.00 in0.0 mm 0.00 in0.0 mm
01:10 AM 86.9°F30.5°C 64.0°F17.8°C 46% 3.0 mph SSW4.8 kmh SSW 8.0 mph12.9 kmh 29.89 in1012.2 mb 0.00 in0.0 mm 0.00 in0.0 mm 0.00 in0.0 mm
01:20 AM 86.5°F30.3°C 64.0°F17.8°C 47% 2.6 mph SW4.2 kmh SW 6.0 mph9.7 kmh 29.89 in1012.2 mb 0.00 in0.0 mm 0.00 in0.0 mm 0.00 in0.0 mm
01:30 AM 86.1°F30.1°C 64.0°F17.8°C 48% 1.9 mph SSW3.1 kmh SSW 9.0 mph14.5 kmh 29.89 in1012.2 mb 0.00 in0.0 mm 0.00 in0.0 mm 0.00 in0.0 mm
01:40 AM 85.8°F29.9°C 64.0°F17.8°C 49% 2.2 mph WSW3.5 kmh WSW 7.0 mph11.3 kmh 29.89 in1012.2 mb 0.00 in0.0 mm 0.00 in0.0 mm 0.00 in0.0 mm
01:50 AM 85.5°F29.7°C 64.0°F17.8°C 49% 2.7 mph SSW4.3 kmh SSW 9.0 mph14.5 kmh 29.90 in1012.5 mb 0.00 in0.0 mm 0.00 in0.0 mm 0.00 in0.0 mm
02:00 AM 85.1°F29.5°C 64.0°F17.8°C 50% 2.1 mph SW3.4 kmh SW 8.0 mph12.9 kmh 29.90 in1012.5 mb 0.00 in0.0 mm 0.00 in0.0 mm 0.00 in0.0 mm
02:10 AM 84.9°F29.4°C 65.0°F18.3°C 51% 2.0 mph SSE3.2 kmh SSE 8.0 mph12.9 kmh 29.90 in1012.5 mb 0.00 in0.0 mm 0.00 in0.0 mm 0.00 in0.0 mm
02:20 AM 84.5°F29.2°C 64.0°F17.8°C 51% 1.2 mph SW1.9 kmh SW 5.0 mph8.0 kmh 29.90 in1012.5 mb 0.00 in0.0 mm 0.00 in0.0 mm 0.00 in0.0 mm
02:30 AM 84.3°F29.1°C 65.0°F18.3°C 52% 1.4 mph SW2.3 kmh SW 5.0 mph8.0 kmh 29.90 in1012.5 mb 0.00 in0.0 mm 0.00 in0.0 mm 0.00 in0.0 mm
02:40 AM 83.9°F28.8°C 65.0°F18.3°C 53% 1.3 mph SSW2.1 kmh SSW 6.0 mph9.7 kmh 29.90 in1012.5 mb 0.00 in0.0 mm 0.00 in0.0 mm 0.00 in0.0 mm
02:50 AM 83.7°F28.7°C 65.0°F18.3°C 53% 1.4 mph SW2.3 kmh SW 6.0 mph9.7 kmh 29.91 in1012.9 mb 0.00 in0.0 mm 0.00 in0.0 mm 0.00 in0.0 mm
03:00 AM 83.5°F28.6°C 65.0°F18.3°C 54% 1.3 mph SSW2.1 kmh SSW 5.0 mph8.0 kmh 29.91 in1012.9 mb 0.00 in0.0 mm 0.00 in0.0 mm 0.00 in0.0 mm
03:10 AM 83.4°F28.6°C 65.0°F18.3°C 54% 2.7 mph S4.3 kmh S 6.0 mph9.7 kmh 29.91 in1012.9 mb 0.00 in0.0 mm 0.00 in0.0 mm 0.00 in0.0 mm
03:20 AM 83.1°F28.4°C 65.0°F18.3°C 54% 1.9 mph SW3.1 kmh SW 9.0 mph14.5 kmh 29.91 in1012.9 mb 0.00 in0.0 mm 0.00 in0.0 mm 0.00 in0.0 mm
03:30 AM 82.9°F28.3°C 65.0°F18.3°C 55% 1.5 mph SW2.4 kmh SW 5.0 mph8.0 kmh 29.91 in1012.9 mb 0.00 in0.0 mm 0.00 in0.0 mm 0.00 in0.0 mm
03:40 AM 82.6°F28.1°C 65.0°F18.3°C 55% 1.6 mph SSW2.6 kmh SSW 5.0 mph8.0 kmh 29.91 in1012.9 mb 0.00 in0.0 mm 0.00 in0.0 mm 0.00 in0.0 mm
03:50 AM 82.3°F27.9°C 65.0°F18.3°C 56% 2.3 mph S3.7 kmh S 6.0 mph9.7 kmh 29.91 in1012.9 mb 0.00 in0.0 mm 0.00 in0.0 mm 0.00 in0.0 mm
04:00 AM 82.1°F27.8°C 65.0°F18.3°C 56% 1.7 mph SW2.7 kmh SW 6.0 mph9.7 kmh 29.91 in1012.9 mb 0.00 in0.0 mm 0.00 in0.0 mm 0.00 in0.0 mm
04:10 AM 81.8°F27.7°C 65.0°F18.3°C 57% 2.1 mph SW3.4 kmh SW 6.0 mph9.7 kmh 29.91 in1012.9 mb 0.00 in0.0 mm 0.00 in0.0 mm 0.00 in0.0 mm
04:20 AM 81.6°F27.6°C 65.0°F18.3°C 58% 1.2 mph S1.9 kmh S 4.0 mph6.4 kmh 29.92 in1013.2 mb 0.00 in0.0 mm 0.00 in0.0 mm 0.00 in0.0 mm
04:30 AM 81.3°F27.4°C 66.0°F18.9°C 59% 1.3 mph SW2.1 kmh SW 6.0 mph9.7 kmh 29.92 in1013.2 mb 0.00 in0.0 mm 0.00 in0.0 mm 0.00 in0.0 mm
04:40 AM 81.1°F27.3°C 65.0°F18.3°C 59% 0.7 mph SW1.1 kmh SW 4.0 mph6.4 kmh 29.92 in1013.2 mb 0.00 in0.0 mm 0.00 in0.0 mm 0.00 in0.0 mm
04:50 AM 81.0°F27.2°C 66.0°F18.9°C 60% 0.5 mph SW0.8 kmh SW 4.0 mph6.4 kmh 29.92 in1013.2 mb 0.00 in0.0 mm 0.00 in0.0 mm 0.00 in0.0 mm
05:00 AM 80.7°F27.1°C 65.0°F18.3°C 60% 0.7 mph SW1.1 kmh SW 2.0 mph3.2 kmh 29.92 in1013.2 mb 0.00 in0.0 mm 0.00 in0.0 mm 0.00 in0.0 mm
05:10 AM 80.5°F26.9°C 66.0°F18.9°C 61% 0.7 mph SW1.1 kmh SW 4.0 mph6.4 kmh 29.93 in1013.5 mb 0.00 in0.0 mm 0.00 in0.0 mm 0.00 in0.0 mm
05:20 AM 80.4°F26.9°C 66.0°F18.9°C 62% 1.0 mph SW1.6 kmh SW 5.0 mph8.0 kmh 29.93 in1013.5 mb 0.00 in0.0 mm 0.00 in0.0 mm 0.00 in0.0 mm
05:30 AM 80.2°F26.8°C 66.0°F18.9°C 62% 1.2 mph SW1.9 kmh SW 4.0 mph6.4 kmh 29.93 in1013.5 mb 0.00 in0.0 mm 0.00 in0.0 mm 0.00 in0.0 mm
05:40 AM 80.1°F26.7°C 66.0°F18.9°C 63% 1.2 mph SSW1.9 kmh SSW 4.0 mph6.4 kmh 29.94 in1013.9 mb 0.00 in0.0 mm 0.00 in0.0 mm 0.00 in0.0 mm
05:50 AM 80.0°F26.7°C 66.0°F18.9°C 63% 1.6 mph SW2.6 kmh SW 4.0 mph6.4 kmh 29.95 in1014.2 mb 0.00 in0.0 mm 0.00 in0.0 mm 0.00 in0.0 mm
06:00 AM 79.9°F26.6°C 66.0°F18.9°C 63% 0.7 mph SW1.1 kmh SW 3.0 mph4.8 kmh 29.95 in1014.2 mb 0.00 in0.0 mm 0.00 in0.0 mm 0.00 in0.0 mm
06:10 AM 79.9°F26.6°C 67.0°F19.4°C 64% 1.3 mph SSW2.1 kmh SSW 4.0 mph6.4 kmh 29.95 in1014.2 mb 0.00 in0.0 mm 0.00 in0.0 mm 0.00 in0.0 mm
06:20 AM 79.8°F26.6°C 67.0°F19.4°C 64% 0.9 mph SW1.4 kmh SW 4.0 mph6.4 kmh 29.95 in1014.2 mb 0.00 in0.0 mm 0.00 in0.0 mm 0.00 in0.0 mm
06:30 AM 79.9°F26.6°C 67.0°F19.4°C 64% 0.8 mph SW1.3 kmh SW 2.0 mph3.2 kmh 29.96 in1014.6 mb 0.00 in0.0 mm 0.00 in0.0 mm 0.00 in0.0 mm
06:40 AM 80.1°F26.7°C 67.0°F19.4°C 64% 1.0 mph SW1.6 kmh SW 5.0 mph8.0 kmh 29.96 in1014.6 mb 0.00 in0.0 mm 0.00 in0.0 mm 0.00 in0.0 mm
06:50 AM 80.3°F26.8°C 67.0°F19.4°C 63% 1.4 mph SW2.3 kmh SW 4.0 mph6.4 kmh 29.97 in1014.9 mb 0.00 in0.0 mm 0.00 in0.0 mm 0.00 in0.0 mm
07:00 AM 80.6°F27.0°C 67.0°F19.4°C 63% 1.1 mph S1.8 kmh S 5.0 mph8.0 kmh 29.97 in1014.9 mb 0.00 in0.0 mm 0.00 in0.0 mm 0.00 in0.0 mm
07:10 AM 80.9°F27.2°C 67.0°F19.4°C 63% 2.0 mph SSW3.2 kmh SSW 5.0 mph8.0 kmh 29.98 in1015.2 mb 0.00 in0.0 mm 0.00 in0.0 mm 0.00 in0.0 mm
07:20 AM 81.2°F27.3°C 67.0°F19.4°C 63% 1.3 mph SW2.1 kmh SW 5.0 mph8.0 kmh 29.98 in1015.2 mb 0.00 in0.0 mm 0.00 in0.0 mm 0.00 in0.0 mm
07:30 AM 81.5°F27.5°C 67.0°F19.4°C 62% 0.9 mph SE1.4 kmh SE 4.0 mph6.4 kmh 29.98 in1015.2 mb 0.00 in0.0 mm 0.00 in0.0 mm 0.00 in0.0 mm
07:40 AM 82.4°F28.0°C 68.0°F20.0°C 61% 0.6 mph SSW1.0 kmh SSW 2.0 mph3.2 kmh 29.98 in1015.2 mb 0.00 in0.0 mm 0.00 in0.0 mm 0.00 in0.0 mm
07:50 AM 83.8°F28.8°C 68.0°F20.0°C 59% 1.1 mph SSW1.8 kmh SSW 6.0 mph9.7 kmh 29.98 in1015.2 mb 0.00 in0.0 mm 0.00 in0.0 mm 0.00 in0.0 mm
08:00 AM 85.0°F29.4°C 68.0°F20.0°C 57% 1.0 mph SSW1.6 kmh SSW 4.0 mph6.4 kmh 29.98 in1015.2 mb 0.00 in0.0 mm 0.00 in0.0 mm 0.00 in0.0 mm
08:10 AM 85.4°F29.7°C 68.0°F20.0°C 56% 1.8 mph SW2.9 kmh SW 7.0 mph11.3 kmh 29.98 in1015.2 mb 0.00 in0.0 mm 0.00 in0.0 mm 0.00 in0.0 mm
08:20 AM 85.8°F29.9°C 68.0°F20.0°C 56% 2.0 mph SW3.2 kmh SW 5.0 mph8.0 kmh 29.98 in1015.2 mb 0.00 in0.0 mm 0.00 in0.0 mm 0.00 in0.0 mm
08:30 AM 86.1°F30.1°C 68.0°F20.0°C 55% 2.7 mph SSW4.3 kmh SSW 8.0 mph12.9 kmh 29.98 in1015.2 mb 0.00 in0.0 mm 0.00 in0.0 mm 0.00 in0.0 mm
08:40 AM 86.9°F30.5°C 68.0°F20.0°C 54% 1.8 mph SE2.9 kmh SE 6.0 mph9.7 kmh 29.98 in1015.2 mb 0.00 in0.0 mm 0.00 in0.0 mm 0.00 in0.0 mm
08:50 AM 88.5°F31.4°C 69.0°F20.6°C 52% 0.5 mph SW0.8 kmh SW 4.0 mph6.4 kmh 29.98 in1015.2 mb 0.00 in0.0 mm 0.00 in0.0 mm 0.00 in0.0 mm
09:00 AM 88.8°F31.6°C 68.0°F20.0°C 51% 1.1 mph S1.8 kmh S 5.0 mph8.0 kmh 29.98 in1015.2 mb 0.00 in0.0 mm 0.00 in0.0 mm 0.00 in0.0 mm
09:10 AM 88.3°F31.3°C 68.0°F20.0°C 51% 1.9 mph SW3.1 kmh SW 7.0 mph11.3 kmh 29.98 in1015.2 mb 0.00 in0.0 mm 0.00 in0.0 mm 0.00 in0.0 mm
09:20 AM 88.0°F31.1°C 69.0°F20.6°C 53% 2.2 mph WNW3.5 kmh WNW 7.0 mph11.3 kmh 29.98 in1015.2 mb 0.00 in0.0 mm 0.00 in0.0 mm 0.00 in0.0 mm
09:30 AM 88.3°F31.3°C 68.0°F20.0°C 51% 2.5 mph SW4.0 kmh SW 5.0 mph8.0 kmh 29.98 in1015.2 mb 0.00 in0.0 mm 0.00 in0.0 mm 0.00 in0.0 mm
09:40 AM 88.3°F31.3°C 69.0°F20.6°C 53% 2.3 mph SSW3.7 kmh SSW 7.0 mph11.3 kmh 29.97 in1014.9 mb 0.00 in0.0 mm 0.00 in0.0 mm 0.00 in0.0 mm
09:50 AM 88.6°F31.4°C 68.0°F20.0°C 51% 2.6 mph SW4.2 kmh SW 11.0 mph17.7 kmh 29.97 in1014.9 mb 0.00 in0.0 mm 0.00 in0.0 mm 0.00 in0.0 mm
10:00 AM 88.7°F31.5°C 68.0°F20.0°C 51% 2.5 mph SW4.0 kmh SW 10.0 mph16.1 kmh 29.97 in1014.9 mb 0.00 in0.0 mm 0.00 in0.0 mm 0.00 in0.0 mm
10:10 AM 88.7°F31.5°C 68.0°F20.0°C 50% 3.7 mph SSW6.0 kmh SSW 12.0 mph19.3 kmh 29.96 in1014.6 mb 0.00 in0.0 mm 0.00 in0.0 mm 0.00 in0.0 mm
10:20 AM 89.5°F31.9°C 68.0°F20.0°C 49% 2.6 mph SW4.2 kmh SW 7.0 mph11.3 kmh 29.96 in1014.6 mb 0.00 in0.0 mm 0.00 in0.0 mm 0.00 in0.0 mm
10:30 AM 90.1°F32.3°C 68.0°F20.0°C 48% 2.7 mph SW4.3 kmh SW 9.0 mph14.5 kmh 29.96 in1014.6 mb 0.00 in0.0 mm 0.00 in0.0 mm 0.00 in0.0 mm
10:40 AM 90.7°F32.6°C 68.0°F20.0°C 47% 2.4 mph SSE3.9 kmh SSE 9.0 mph14.5 kmh 29.96 in1014.6 mb 0.00 in0.0 mm 0.00 in0.0 mm 0.00 in0.0 mm
10:50 AM 91.1°F32.8°C 68.0°F20.0°C 46% 1.8 mph NE2.9 kmh NE 8.0 mph12.9 kmh 29.95 in1014.2 mb 0.00 in0.0 mm 0.00 in0.0 mm 0.00 in0.0 mm
11:00 AM 91.9°F33.3°C 68.0°F20.0°C 45% 2.1 mph SW3.4 kmh SW 7.0 mph11.3 kmh 29.95 in1014.2 mb 0.00 in0.0 mm 0.00 in0.0 mm 0.00 in0.0 mm
11:10 AM 92.2°F33.4°C 68.0°F20.0°C 45% 2.5 mph N4.0 kmh N 9.0 mph14.5 kmh 29.95 in1014.2 mb 0.00 in0.0 mm 0.00 in0.0 mm 0.00 in0.0 mm
11:20 AM 92.5°F33.6°C 68.0°F20.0°C 44% 2.3 mph SW3.7 kmh SW 9.0 mph14.5 kmh 29.94 in1013.9 mb 0.00 in0.0 mm 0.00 in0.0 mm 0.00 in0.0 mm
11:30 AM 93.7°F34.3°C 67.0°F19.4°C 42% 1.5 mph SW2.4 kmh SW 11.0 mph17.7 kmh 29.94 in1013.9 mb 0.00 in0.0 mm 0.00 in0.0 mm 0.00 in0.0 mm
11:40 AM 93.7°F34.3°C 67.0°F19.4°C 42% 2.7 mph SSW4.3 kmh SSW 8.0 mph12.9 kmh 29.93 in1013.5 mb 0.00 in0.0 mm 0.00 in0.0 mm 0.00 in0.0 mm
11:50 AM 93.5°F34.2°C 67.0°F19.4°C 42% 2.8 mph SSW4.5 kmh SSW 9.0 mph14.5 kmh 29.93 in1013.5 mb 0.00 in0.0 mm 0.00 in0.0 mm 0.00 in0.0 mm
12:00 PM 94.1°F34.5°C 68.0°F20.0°C 42% 3.1 mph SE5.0 kmh SE 9.0 mph14.5 kmh 29.92 in1013.2 mb 0.00 in0.0 mm 0.00 in0.0 mm 0.00 in0.0 mm
12:10 PM 94.5°F34.7°C 68.0°F20.0°C 42% 2.6 mph S4.2 kmh S 7.0 mph11.3 kmh 29.92 in1013.2 mb 0.00 in0.0 mm 0.00 in0.0 mm 0.00 in0.0 mm
12:20 PM 94.9°F34.9°C 67.0°F19.4°C 40% 2.5 mph SW4.0 kmh SW 8.0 mph12.9 kmh 29.91 in1012.9 mb 0.00 in0.0 mm 0.00 in0.0 mm 0.00 in0.0 mm
12:30 PM 95.6°F35.3°C 68.0°F20.0°C 40% 3.3 mph SW5.3 kmh SW 9.0 mph14.5 kmh 29.91 in1012.9 mb 0.00 in0.0 mm 0.00 in0.0 mm 0.00 in0.0 mm
12:40 PM 95.4°F35.2°C 67.0°F19.4°C 39% 3.6 mph SW5.8 kmh SW 10.0 mph16.1 kmh 29.91 in1012.9 mb 0.00 in0.0 mm 0.00 in0.0 mm 0.00 in0.0 mm
12:50 PM 96.7°F35.9°C 68.0°F20.0°C 39% 2.8 mph SW4.5 kmh SW 9.0 mph14.5 kmh 29.90 in1012.5 mb 0.00 in0.0 mm 0.00 in0.0 mm 0.00 in0.0 mm
01:00 PM 96.6°F35.9°C 67.0°F19.4°C 38% 4.0 mph SW6.4 kmh SW 11.0 mph17.7 kmh 29.90 in1012.5 mb 0.00 in0.0 mm 0.00 in0.0 mm 0.00 in0.0 mm
01:10 PM 96.6°F35.9°C 66.0°F18.9°C 37% 3.3 mph SW5.3 kmh SW 11.0 mph17.7 kmh 29.89 in1012.2 mb 0.00 in0.0 mm 0.00 in0.0 mm 0.00 in0.0 mm
01:20 PM 97.4°F36.3°C 66.0°F18.9°C 36% 3.0 mph SW4.8 kmh SW 9.0 mph14.5 kmh 29.89 in1012.2 mb 0.00 in0.0 mm 0.00 in0.0 mm 0.00 in0.0 mm
01:30 PM 97.5°F36.4°C 66.0°F18.9°C 36% 5.1 mph SSW8.2 kmh SSW 13.0 mph20.9 kmh 29.89 in1012.2 mb 0.00 in0.0 mm 0.00 in0.0 mm 0.00 in0.0 mm
01:40 PM 97.9°F36.6°C 66.0°F18.9°C 35% 2.9 mph S4.7 kmh S 10.0 mph16.1 kmh 29.88 in1011.9 mb 0.00 in0.0 mm 0.00 in0.0 mm 0.00 in0.0 mm
01:50 PM 97.7°F36.5°C 66.0°F18.9°C 35% 3.9 mph SW6.3 kmh SW 10.0 mph16.1 kmh 29.88 in1011.9 mb 0.00 in0.0 mm 0.00 in0.0 mm 0.00 in0.0 mm
02:00 PM 98.0°F36.7°C 66.0°F18.9°C 35% 4.4 mph SW7.1 kmh SW 14.0 mph22.5 kmh 29.88 in1011.9 mb 0.00 in0.0 mm 0.00 in0.0 mm 0.00 in0.0 mm
02:10 PM 98.7°F37.1°C 66.0°F18.9°C 34% 3.3 mph W5.3 kmh W 13.0 mph20.9 kmh 29.87 in1011.5 mb 0.00 in0.0 mm 0.00 in0.0 mm 0.00 in0.0 mm
02:20 PM 99.1°F37.3°C 65.0°F18.3°C 33% 4.8 mph SW7.7 kmh SW 14.0 mph22.5 kmh 29.86 in1011.2 mb 0.00 in0.0 mm 0.00 in0.0 mm 0.00 in0.0 mm
02:30 PM 100.0°F37.8°C 66.0°F18.9°C 33% 2.2 mph WSW3.5 kmh WSW 12.0 mph19.3 kmh 29.86 in1011.2 mb 0.00 in0.0 mm 0.00 in0.0 mm 0.00 in0.0 mm
02:40 PM 99.5°F37.5°C 66.0°F18.9°C 33% 4.1 mph SE6.6 kmh SE 13.0 mph20.9 kmh 29.85 in1010.8 mb 0.00 in0.0 mm 0.00 in0.0 mm 0.00 in0.0 mm
02:50 PM 99.9°F37.7°C 65.0°F18.3°C 32% 3.5 mph SW5.6 kmh SW 10.0 mph16.1 kmh 29.85 in1010.8 mb 0.00 in0.0 mm 0.00 in0.0 mm 0.00 in0.0 mm
03:00 PM 99.7°F37.6°C 65.0°F18.3°C 32% 5.5 mph SW8.9 kmh SW 13.0 mph20.9 kmh 29.84 in1010.5 mb 0.00 in0.0 mm 0.00 in0.0 mm 0.00 in0.0 mm
03:10 PM 99.6°F37.6°C 66.0°F18.9°C 33% 3.6 mph SW5.8 kmh SW 9.0 mph14.5 kmh 29.84 in1010.5 mb 0.00 in0.0 mm 0.00 in0.0 mm 0.00 in0.0 mm
03:20 PM 99.3°F37.4°C 65.0°F18.3°C 32% 5.5 mph SW8.9 kmh SW 13.0 mph20.9 kmh 29.84 in1010.5 mb 0.00 in0.0 mm 0.00 in0.0 mm 0.00 in0.0 mm
03:30 PM 99.4°F37.4°C 65.0°F18.3°C 32% 4.3 mph W6.9 kmh W 10.0 mph16.1 kmh 29.83 in1010.2 mb 0.00 in0.0 mm 0.00 in0.0 mm 0.00 in0.0 mm
03:40 PM 100.2°F37.9°C 65.0°F18.3°C 31% 3.8 mph SW6.1 kmh SW 13.0 mph20.9 kmh 29.83 in1010.2 mb 0.00 in0.0 mm 0.00 in0.0 mm 0.00 in0.0 mm
03:50 PM 99.2°F37.3°C 64.0°F17.8°C 31% 5.2 mph SSW8.4 kmh SSW 13.0 mph20.9 kmh 29.82 in1009.8 mb 0.00 in0.0 mm 0.00 in0.0 mm 0.00 in0.0 mm
04:00 PM 99.4°F37.4°C 65.0°F18.3°C 32% 4.2 mph SW6.8 kmh SW 13.0 mph20.9 kmh 29.82 in1009.8 mb 0.00 in0.0 mm 0.00 in0.0 mm 0.00 in0.0 mm
04:10 PM 99.7°F37.6°C 64.0°F17.8°C 31% 4.8 mph S7.7 kmh S 13.0 mph20.9 kmh 29.82 in1009.8 mb 0.00 in0.0 mm 0.00 in0.0 mm 0.00 in0.0 mm
04:20 PM 99.7°F37.6°C 64.0°F17.8°C 31% 4.3 mph S6.9 kmh S 10.0 mph16.1 kmh 29.81 in1009.5 mb 0.00 in0.0 mm 0.00 in0.0 mm 0.00 in0.0 mm
04:30 PM 99.3°F37.4°C 64.0°F17.8°C 31% 5.3 mph SW8.5 kmh SW 13.0 mph20.9 kmh 29.81 in1009.5 mb 0.00 in0.0 mm 0.00 in0.0 mm 0.00 in0.0 mm
04:40 PM 99.5°F37.5°C 64.0°F17.8°C 31% 3.7 mph WSW6.0 kmh WSW 12.0 mph19.3 kmh 29.81 in1009.5 mb 0.00 in0.0 mm 0.00 in0.0 mm 0.00 in0.0 mm
04:50 PM 99.8°F37.7°C 64.0°F17.8°C 31% 4.5 mph SW7.2 kmh SW 12.0 mph19.3 kmh 29.80 in1009.1 mb 0.00 in0.0 mm 0.00 in0.0 mm 0.00 in0.0 mm
05:00 PM 99.5°F37.5°C 63.0°F17.2°C 30% 4.3 mph SSW6.9 kmh SSW 12.0 mph19.3 kmh 29.80 in1009.1 mb 0.00 in0.0 mm 0.00 in0.0 mm 0.00 in0.0 mm
05:10 PM 99.7°F37.6°C 63.0°F17.2°C 30% 4.4 mph SW7.1 kmh SW 11.0 mph17.7 kmh 29.81 in1009.5 mb 0.00 in0.0 mm 0.00 in0.0 mm 0.00 in0.0 mm
05:20 PM 99.2°F37.3°C 64.0°F17.8°C 31% 5.9 mph SW9.5 kmh SW 13.0 mph20.9 kmh 29.80 in1009.1 mb 0.00 in0.0 mm 0.00 in0.0 mm 0.00 in0.0 mm
05:30 PM 99.2°F37.3°C 64.0°F17.8°C 31% 4.9 mph SW7.9 kmh SW 11.0 mph17.7 kmh 29.80 in1009.1 mb 0.00 in0.0 mm 0.00 in0.0 mm 0.00 in0.0 mm
05:40 PM 99.3°F37.4°C 63.0°F17.2°C 30% 5.0 mph SSW8.0 kmh SSW 11.0 mph17.7 kmh 29.80 in1009.1 mb 0.00 in0.0 mm 0.00 in0.0 mm 0.00 in0.0 mm
05:50 PM 98.8°F37.1°C 63.0°F17.2°C 31% 5.4 mph S8.7 kmh S 12.0 mph19.3 kmh 29.80 in1009.1 mb 0.00 in0.0 mm 0.00 in0.0 mm 0.00 in0.0 mm
06:00 PM 98.9°F37.2°C 62.0°F16.7°C 30% 4.8 mph SW7.7 kmh SW 13.0 mph20.9 kmh 29.80 in1009.1 mb 0.00 in0.0 mm 0.00 in0.0 mm 0.00 in0.0 mm
06:10 PM 98.6°F37.0°C 62.0°F16.7°C 30% 3.8 mph SW6.1 kmh SW 9.0 mph14.5 kmh 29.79 in1008.8 mb 0.00 in0.0 mm 0.00 in0.0 mm 0.00 in0.0 mm
06:20 PM 98.2°F36.8°C 63.0°F17.2°C 31% 5.2 mph SW8.4 kmh SW 13.0 mph20.9 kmh 29.79 in1008.8 mb 0.00 in0.0 mm 0.00 in0.0 mm 0.00 in0.0 mm
06:30 PM 97.9°F36.6°C 63.0°F17.2°C 31% 5.2 mph SW8.4 kmh SW 12.0 mph19.3 kmh 29.79 in1008.8 mb 0.00 in0.0 mm 0.00 in0.0 mm 0.00 in0.0 mm
06:40 PM 97.6°F36.4°C 62.0°F16.7°C 31% 4.2 mph SW6.8 kmh SW 8.0 mph12.9 kmh 29.79 in1008.8 mb 0.00 in0.0 mm 0.00 in0.0 mm 0.00 in0.0 mm
06:50 PM 97.2°F36.2°C 63.0°F17.2°C 32% 3.9 mph SW6.3 kmh SW 10.0 mph16.1 kmh 29.79 in1008.8 mb 0.00 in0.0 mm 0.00 in0.0 mm 0.00 in0.0 mm
07:00 PM 96.8°F36.0°C 62.0°F16.7°C 32% 4.4 mph SW7.1 kmh SW 10.0 mph16.1 kmh 29.79 in1008.8 mb 0.00 in0.0 mm 0.00 in0.0 mm 0.00 in0.0 mm
07:10 PM 96.5°F35.8°C 62.0°F16.7°C 32% 4.3 mph SW6.9 kmh SW 12.0 mph19.3 kmh 29.79 in1008.8 mb 0.00 in0.0 mm 0.00 in0.0 mm 0.00 in0.0 mm
07:20 PM 96.2°F35.7°C 63.0°F17.2°C 33% 3.8 mph SW6.1 kmh SW 11.0 mph17.7 kmh 29.79 in1008.8 mb 0.00 in0.0 mm 0.00 in0.0 mm 0.00 in0.0 mm
07:30 PM 95.9°F35.5°C 62.0°F16.7°C 33% 3.5 mph S5.6 kmh S 10.0 mph16.1 kmh 29.80 in1009.1 mb 0.00 in0.0 mm 0.00 in0.0 mm 0.00 in0.0 mm
07:40 PM 95.8°F35.4°C 62.0°F16.7°C 33% 3.5 mph SW5.6 kmh SW 10.0 mph16.1 kmh 29.80 in1009.1 mb 0.00 in0.0 mm 0.00 in0.0 mm 0.00 in0.0 mm
07:50 PM 95.5°F35.3°C 62.0°F16.7°C 33% 3.1 mph SW5.0 kmh SW 7.0 mph11.3 kmh 29.80 in1009.1 mb 0.00 in0.0 mm 0.00 in0.0 mm 0.00 in0.0 mm
08:00 PM 95.3°F35.2°C 62.0°F16.7°C 33% 3.4 mph SW5.5 kmh SW 10.0 mph16.1 kmh 29.80 in1009.1 mb 0.00 in0.0 mm 0.00 in0.0 mm 0.00 in0.0 mm
08:10 PM 95.0°F35.0°C 63.0°F17.2°C 34% 2.8 mph S4.5 kmh S 8.0 mph12.9 kmh 29.80 in1009.1 mb 0.00 in0.0 mm 0.00 in0.0 mm 0.00 in0.0 mm
08:20 PM 94.8°F34.9°C 62.0°F16.7°C 34% 3.0 mph ESE4.8 kmh ESE 8.0 mph12.9 kmh 29.81 in1009.5 mb 0.00 in0.0 mm 0.00 in0.0 mm 0.00 in0.0 mm
08:30 PM 94.7°F34.8°C 62.0°F16.7°C 34% 2.8 mph SW4.5 kmh SW 9.0 mph14.5 kmh 29.81 in1009.5 mb 0.00 in0.0 mm 0.00 in0.0 mm 0.00 in0.0 mm
08:40 PM 94.4°F34.7°C 62.0°F16.7°C 34% 2.3 mph SW3.7 kmh SW 7.0 mph11.3 kmh 29.81 in1009.5 mb 0.00 in0.0 mm 0.00 in0.0 mm 0.00 in0.0 mm
08:50 PM 94.3°F34.6°C 62.0°F16.7°C 34% 2.1 mph SSE3.4 kmh SSE 5.0 mph8.0 kmh 29.82 in1009.8 mb 0.00 in0.0 mm 0.00 in0.0 mm 0.00 in0.0 mm
09:00 PM 94.0°F34.4°C 62.0°F16.7°C 34% 1.6 mph SW2.6 kmh SW 7.0 mph11.3 kmh 29.82 in1009.8 mb 0.00 in0.0 mm 0.00 in0.0 mm 0.00 in0.0 mm
09:10 PM 93.7°F34.3°C 61.0°F16.1°C 34% 1.4 mph SW2.3 kmh SW 4.0 mph6.4 kmh 29.82 in1009.8 mb 0.00 in0.0 mm 0.00 in0.0 mm 0.00 in0.0 mm
09:20 PM 93.4°F34.1°C 62.0°F16.7°C 35% 1.4 mph SW2.3 kmh SW 4.0 mph6.4 kmh 29.82 in1009.8 mb 0.00 in0.0 mm 0.00 in0.0 mm 0.00 in0.0 mm
09:30 PM 93.0°F33.9°C 62.0°F16.7°C 35% 1.1 mph SW1.8 kmh SW 5.0 mph8.0 kmh 29.82 in1009.8 mb 0.00 in0.0 mm 0.00 in0.0 mm 0.00 in0.0 mm
09:40 PM 92.8°F33.8°C 61.0°F16.1°C 35% 1.1 mph SE1.8 kmh SE 3.0 mph4.8 kmh 29.82 in1009.8 mb 0.00 in0.0 mm 0.00 in0.0 mm 0.00 in0.0 mm
09:50 PM 92.7°F33.7°C 61.0°F16.1°C 35% 1.4 mph SW2.3 kmh SW 4.0 mph6.4 kmh 29.82 in1009.8 mb 0.00 in0.0 mm 0.00 in0.0 mm 0.00 in0.0 mm
10:00 PM 92.5°F33.6°C 62.0°F16.7°C 36% 1.6 mph SW2.6 kmh SW 5.0 mph8.0 kmh 29.82 in1009.8 mb 0.00 in0.0 mm 0.00 in0.0 mm 0.00 in0.0 mm
10:10 PM 92.2°F33.4°C 62.0°F16.7°C 36% 1.2 mph S1.9 kmh S 3.0 mph4.8 kmh 29.82 in1009.8 mb 0.00 in0.0 mm 0.00 in0.0 mm 0.00 in0.0 mm
10:20 PM 92.0°F33.3°C 61.0°F16.1°C 36% 1.6 mph SSW2.6 kmh SSW 6.0 mph9.7 kmh 29.82 in1009.8 mb 0.00 in0.0 mm 0.00 in0.0 mm 0.00 in0.0 mm
10:30 PM 91.7°F33.2°C 61.0°F16.1°C 36% 1.3 mph SW2.1 kmh SW 5.0 mph8.0 kmh 29.82 in1009.8 mb 0.00 in0.0 mm 0.00 in0.0 mm 0.00 in0.0 mm
10:40 PM 91.3°F32.9°C 62.0°F16.7°C 37% 0.5 mph S0.8 kmh S 3.0 mph4.8 kmh 29.82 in1009.8 mb 0.00 in0.0 mm 0.00 in0.0 mm 0.00 in0.0 mm
10:50 PM 90.9°F32.7°C 61.0°F16.1°C 37% 0.2 mph SW0.3 kmh SW 2.0 mph3.2 kmh 29.81 in1009.5 mb 0.00 in0.0 mm 0.00 in0.0 mm 0.00 in0.0 mm
11:00 PM 90.7°F32.6°C 61.0°F16.1°C 37% 0.7 mph SW1.1 kmh SW 2.0 mph3.2 kmh 29.81 in1009.5 mb 0.00 in0.0 mm 0.00 in0.0 mm 0.00 in0.0 mm
11:10 PM 90.7°F32.6°C 61.0°F16.1°C 37% 1.4 mph SSW2.3 kmh SSW 3.0 mph4.8 kmh 29.80 in1009.1 mb 0.00 in0.0 mm 0.00 in0.0 mm 0.00 in0.0 mm
11:20 PM 90.6°F32.6°C 61.0°F16.1°C 37% 0.9 mph SSW1.4 kmh SSW 3.0 mph4.8 kmh 29.80 in1009.1 mb 0.00 in0.0 mm 0.00 in0.0 mm 0.00 in0.0 mm
11:30 PM 90.5°F32.5°C 61.0°F16.1°C 37% 1.9 mph SW3.1 kmh SW 5.0 mph8.0 kmh 29.80 in1009.1 mb 0.00 in0.0 mm 0.00 in0.0 mm 0.00 in0.0 mm
11:40 PM 90.3°F32.4°C 61.0°F16.1°C 38% 1.3 mph SSW2.1 kmh SSW 4.0 mph6.4 kmh 29.80 in1009.1 mb 0.00 in0.0 mm 0.00 in0.0 mm 0.00 in0.0 mm
11:50 PM 90.1°F32.3°C 61.0°F16.1°C 38% 1.0 mph SW1.6 kmh SW 3.0 mph4.8 kmh 29.79 in1008.8 mb 0.00 in0.0 mm 0.00 in0.0 mm 0.00 in0.0 mm